createdAt,value
2018-12-03T21:07:06.907Z,7.42
2018-12-03T21:09:42.238Z,7.44
2018-12-03T21:12:10.686Z,7.43
2018-12-03T21:14:39.157Z,7.42
2018-12-03T21:17:07.694Z,7.39
2018-12-03T21:19:36.175Z,7.37
2018-12-03T21:22:04.647Z,7.34
2018-12-03T21:24:33.148Z,7.33
2018-12-03T21:27:01.625Z,7.33
2018-12-03T21:29:30.115Z,7.34
2018-12-03T21:31:58.565Z,7.37
2018-12-03T21:34:27.029Z,7.40
2018-12-03T21:36:55.492Z,7.43
2018-12-03T21:39:23.942Z,7.48
2018-12-03T21:41:52.420Z,7.52
2018-12-03T21:44:20.867Z,7.56
2018-12-03T21:46:49.363Z,7.58
2018-12-03T21:49:17.845Z,7.58
2018-12-03T21:51:46.325Z,7.61
2018-12-03T21:54:14.779Z,7.64
2018-12-03T21:56:43.263Z,7.66
2018-12-03T21:59:11.730Z,7.69
2018-12-03T22:01:40.200Z,7.73
2018-12-03T22:04:08.663Z,7.79
2018-12-03T22:06:37.148Z,7.84
2018-12-03T22:09:06.625Z,7.88
2018-12-03T22:11:35.144Z,7.91
2018-12-03T22:14:06.510Z,7.95
2018-12-03T22:16:34.990Z,7.99
2018-12-03T22:19:03.445Z,8.04
2018-12-03T22:21:32.998Z,8.10
2018-12-03T22:24:01.486Z,8.18
2018-12-03T22:26:29.986Z,8.26
2018-12-03T22:28:58.440Z,8.33
2018-12-03T22:31:26.905Z,8.38
2018-12-03T22:33:55.391Z,8.43
2018-12-03T22:36:23.867Z,8.50
2018-12-03T22:38:52.313Z,8.55
2018-12-03T22:41:20.805Z,8.62
2018-12-03T22:43:49.285Z,8.66
2018-12-03T22:46:17.786Z,8.68
2018-12-03T22:48:46.233Z,8.66
2018-12-03T22:51:14.734Z,8.65
2018-12-03T22:53:59.620Z,8.67
2018-12-03T22:56:28.099Z,8.70
2018-12-03T22:58:56.559Z,8.72
2018-12-03T23:01:25.032Z,8.70
2018-12-03T23:03:53.470Z,8.70
2018-12-03T23:06:21.957Z,8.69
2018-12-03T23:08:50.450Z,8.69
2018-12-03T23:11:18.928Z,8.72
2018-12-03T23:13:47.377Z,8.71
2018-12-03T23:16:16.249Z,8.75
2018-12-03T23:18:44.729Z,8.76
2018-12-03T23:21:13.192Z,8.80
2018-12-03T23:23:41.686Z,8.81
2018-12-03T23:26:10.132Z,8.80
2018-12-03T23:28:38.614Z,8.81
2018-12-03T23:31:07.098Z,8.85
2018-12-03T23:33:35.574Z,8.86
2018-12-03T23:36:04.068Z,9.02
2018-12-03T23:38:32.552Z,8.72
2018-12-03T23:41:00.996Z,8.53
2018-12-03T23:43:29.517Z,8.38
2018-12-03T23:45:57.958Z,8.30
2018-12-03T23:48:26.429Z,8.21
2018-12-03T23:50:54.880Z,8.12
2018-12-03T23:53:23.352Z,8.05
2018-12-03T23:55:51.809Z,7.94
2018-12-03T23:58:20.290Z,7.75
